sensor_id;sensor_type;location;lat;lon;timestamp;pressure;altitude;pressure_sealevel;temperature;humidity
76660;BME280;65579;45.534;6.212;2023-02-28T00:01:57;98328.92;;;2.06;40.41
76660;BME280;65579;45.534;6.212;2023-02-28T00:04:23;98332.62;;;1.82;39.78
76660;BME280;65579;45.534;6.212;2023-02-28T00:06:48;98336.38;;;2.03;40.22
76660;BME280;65579;45.534;6.212;2023-02-28T00:09:14;98337.65;;;2.29;39.83
76660;BME280;65579;45.534;6.212;2023-02-28T00:11:40;98339.18;;;2.16;40.23
76660;BME280;65579;45.534;6.212;2023-02-28T00:14:05;98350.55;;;1.83;42.09
76660;BME280;65579;45.534;6.212;2023-02-28T00:16:31;98347.92;;;2.06;41.61
76660;BME280;65579;45.534;6.212;2023-02-28T00:18:57;98350.29;;;2.15;40.90
76660;BME280;65579;45.534;6.212;2023-02-28T00:21:22;98347.98;;;2.69;39.63
76660;BME280;65579;45.534;6.212;2023-02-28T00:23:48;98354.08;;;1.99;40.46
76660;BME280;65579;45.534;6.212;2023-02-28T00:26:13;98351.57;;;2.29;40.59
76660;BME280;65579;45.534;6.212;2023-02-28T00:28:39;98352.17;;;2.40;39.89
76660;BME280;65579;45.534;6.212;2023-02-28T00:31:05;98358.60;;;2.26;40.76
76660;BME280;65579;45.534;6.212;2023-02-28T00:33:30;98351.75;;;2.14;40.27
76660;BME280;65579;45.534;6.212;2023-02-28T00:36:03;98357.40;;;1.95;40.68
76660;BME280;65579;45.534;6.212;2023-02-28T00:38:21;98363.06;;;1.49;41.39
76660;BME280;65579;45.534;6.212;2023-02-28T00:40:47;98364.49;;;1.62;41.44
76660;BME280;65579;45.534;6.212;2023-02-28T00:43:12;98365.92;;;2.10;40.91
76660;BME280;65579;45.534;6.212;2023-02-28T00:45:38;98361.70;;;2.45;39.76
76660;BME280;65579;45.534;6.212;2023-02-28T00:48:04;98362.17;;;1.55;41.25
76660;BME280;65579;45.534;6.212;2023-02-28T00:50:29;98359.20;;;1.70;40.88
76660;BME280;65579;45.534;6.212;2023-02-28T00:52:54;98357.86;;;2.02;40.94
76660;BME280;65579;45.534;6.212;2023-02-28T00:55:20;98356.65;;;1.54;40.69
76660;BME280;65579;45.534;6.212;2023-02-28T00:57:45;98352.38;;;3.16;38.51
76660;BME280;65579;45.534;6.212;2023-02-28T01:00:12;98353.09;;;1.95;40.69
76660;BME280;65579;45.534;6.212;2023-02-28T01:02:37;98352.59;;;2.51;39.46
76660;BME280;65579;45.534;6.212;2023-02-28T01:05:03;98357.07;;;1.68;40.80
76660;BME280;65579;45.534;6.212;2023-02-28T01:07:27;98357.02;;;1.66;41.20
76660;BME280;65579;45.534;6.212;2023-02-28T01:09:53;98355.46;;;1.88;40.65
76660;BME280;65579;45.534;6.212;2023-02-28T01:12:18;98354.11;;;1.63;40.45
76660;BME280;65579;45.534;6.212;2023-02-28T01:14:43;98352.29;;;1.82;41.53
76660;BME280;65579;45.534;6.212;2023-02-28T01:17:09;98349.95;;;1.45;41.20
76660;BME280;65579;45.534;6.212;2023-02-28T01:19:35;98348.85;;;1.77;41.03
76660;BME280;65579;45.534;6.212;2023-02-28T01:22:01;98344.74;;;2.35;39.81
76660;BME280;65579;45.534;6.212;2023-02-28T01:24:25;98348.71;;;2.10;40.37
76660;BME280;65579;45.534;6.212;2023-02-28T01:26:51;98352.89;;;1.71;41.43
76660;BME280;65579;45.534;6.212;2023-02-28T01:29:17;98349.51;;;2.21;40.26
76660;BME280;65579;45.534;6.212;2023-02-28T01:31:42;98348.87;;;2.52;39.75
76660;BME280;65579;45.534;6.212;2023-02-28T01:34:07;98353.24;;;2.07;40.96
76660;BME280;65579;45.534;6.212;2023-02-28T01:36:33;98355.47;;;1.77;41.77
76660;BME280;65579;45.534;6.212;2023-02-28T01:38:58;98352.60;;;2.04;41.25
76660;BME280;65579;45.534;6.212;2023-02-28T01:41:25;98353.44;;;1.77;41.06
76660;BME280;65579;45.534;6.212;2023-02-28T01:43:56;98349.63;;;2.29;40.93
76660;BME280;65579;45.534;6.212;2023-02-28T01:46:15;98350.03;;;3.13;39.30
76660;BME280;65579;45.534;6.212;2023-02-28T01:48:42;98354.35;;;1.74;41.12
76660;BME280;65579;45.534;6.212;2023-02-28T01:51:08;98360.96;;;1.65;41.35
76660;BME280;65579;45.534;6.212;2023-02-28T01:53:33;98359.36;;;1.52;41.66
76660;BME280;65579;45.534;6.212;2023-02-28T01:55:56;98357.05;;;1.43;42.07
76660;BME280;65579;45.534;6.212;2023-02-28T01:58:21;98346.88;;;2.26;40.56
76660;BME280;65579;45.534;6.212;2023-02-28T02:00:47;98351.37;;;1.68;41.05
76660;BME280;65579;45.534;6.212;2023-02-28T02:03:14;98348.70;;;1.40;41.64
76660;BME280;65579;45.534;6.212;2023-02-28T02:05:39;98351.17;;;1.64;41.68
76660;BME280;65579;45.534;6.212;2023-02-28T02:08:05;98350.92;;;1.67;41.84
76660;BME280;65579;45.534;6.212;2023-02-28T02:10:32;98343.37;;;2.04;41.15
76660;BME280;65579;45.534;6.212;2023-02-28T02:15:24;98343.51;;;2.16;40.63
76660;BME280;65579;45.534;6.212;2023-02-28T02:17:47;98348.78;;;1.68;42.25
76660;BME280;65579;45.534;6.212;2023-02-28T02:25:11;98330.34;;;2.64;40.59
76660;BME280;65579;45.534;6.212;2023-02-28T02:27:43;98333.54;;;1.79;42.67
76660;BME280;65579;45.534;6.212;2023-02-28T02:34:48;98328.44;;;1.12;42.54
76660;BME280;65579;45.534;6.212;2023-02-28T02:37:15;98332.17;;;1.19;43.00
76660;BME280;65579;45.534;6.212;2023-02-28T02:39:42;98329.58;;;1.41;44.08
76660;BME280;65579;45.534;6.212;2023-02-28T02:42:01;98334.25;;;1.64;43.18
76660;BME280;65579;45.534;6.212;2023-02-28T02:44:30;98335.64;;;1.61;42.48
76660;BME280;65579;45.534;6.212;2023-02-28T02:46:53;98338.45;;;2.02;42.84
76660;BME280;65579;45.534;6.212;2023-02-28T02:49:19;98335.15;;;2.30;42.92
76660;BME280;65579;45.534;6.212;2023-02-28T02:51:42;98334.53;;;1.36;43.66
76660;BME280;65579;45.534;6.212;2023-02-28T02:54:10;98332.10;;;1.19;43.96
76660;BME280;65579;45.534;6.212;2023-02-28T02:56:33;98329.31;;;1.89;43.06
76660;BME280;65579;45.534;6.212;2023-02-28T02:59:01;98331.91;;;1.24;43.69
76660;BME280;65579;45.534;6.212;2023-02-28T03:01:25;98330.84;;;2.04;42.24
76660;BME280;65579;45.534;6.212;2023-02-28T03:03:48;98333.48;;;1.37;43.05
76660;BME280;65579;45.534;6.212;2023-02-28T03:06:15;98326.13;;;2.12;42.70
76660;BME280;65579;45.534;6.212;2023-02-28T03:08:39;98322.67;;;2.05;41.11
76660;BME280;65579;45.534;6.212;2023-02-28T03:11:06;98321.56;;;2.10;41.95
76660;BME280;65579;45.534;6.212;2023-02-28T03:13:45;98321.82;;;2.00;41.25
76660;BME280;65579;45.534;6.212;2023-02-28T03:16:07;98324.54;;;2.09;41.51
76660;BME280;65579;45.534;6.212;2023-02-28T03:18:25;98325.64;;;1.60;42.44
76660;BME280;65579;45.534;6.212;2023-02-28T03:20:50;98319.95;;;1.65;42.37
76660;BME280;65579;45.534;6.212;2023-02-28T03:23:15;98319.54;;;2.54;40.20
76660;BME280;65579;45.534;6.212;2023-02-28T03:25:45;98314.13;;;2.25;40.96
76660;BME280;65579;45.534;6.212;2023-02-28T03:28:07;98317.80;;;1.44;42.28
76660;BME280;65579;45.534;6.212;2023-02-28T03:30:32;98312.59;;;1.69;41.16
76660;BME280;65579;45.534;6.212;2023-02-28T03:32:56;98316.68;;;1.60;42.89
76660;BME280;65579;45.534;6.212;2023-02-28T03:35:21;98318.52;;;1.33;43.32
76660;BME280;65579;45.534;6.212;2023-02-28T03:37:44;98312.59;;;0.97;43.45
76660;BME280;65579;45.534;6.212;2023-02-28T03:40:11;98305.82;;;1.57;42.54
76660;BME280;65579;45.534;6.212;2023-02-28T03:42:35;98309.11;;;1.67;41.94
76660;BME280;65579;45.534;6.212;2023-02-28T03:45:01;98311.57;;;1.09;42.87
76660;BME280;65579;45.534;6.212;2023-02-28T03:47:27;98312.99;;;0.92;44.47
76660;BME280;65579;45.534;6.212;2023-02-28T03:49:52;98307.50;;;1.15;44.14
76660;BME280;65579;45.534;6.212;2023-02-28T03:52:14;98310.29;;;1.31;44.14
76660;BME280;65579;45.534;6.212;2023-02-28T03:54:42;98317.14;;;1.10;44.63
76660;BME280;65579;45.534;6.212;2023-02-28T03:57:10;98316.93;;;1.75;42.81
76660;BME280;65579;45.534;6.212;2023-02-28T03:59:35;98316.86;;;1.33;43.15
76660;BME280;65579;45.534;6.212;2023-02-28T04:01:57;98322.36;;;1.72;43.52
76660;BME280;65579;45.534;6.212;2023-02-28T04:04:22;98325.76;;;1.36;43.33
76660;BME280;65579;45.534;6.212;2023-02-28T04:06:49;98331.39;;;1.17;43.80
76660;BME280;65579;45.534;6.212;2023-02-28T04:09:14;98331.75;;;1.21;43.16
76660;BME280;65579;45.534;6.212;2023-02-28T04:11:40;98336.50;;;1.50;43.04
76660;BME280;65579;45.534;6.212;2023-02-28T04:14:04;98339.90;;;1.03;43.55
76660;BME280;65579;45.534;6.212;2023-02-28T04:16:29;98342.72;;;0.95;44.08
76660;BME280;65579;45.534;6.212;2023-02-28T04:18:54;98340.30;;;1.43;43.26
76660;BME280;65579;45.534;6.212;2023-02-28T04:21:20;98342.42;;;1.18;42.90
76660;BME280;65579;45.534;6.212;2023-02-28T04:23:46;98339.65;;;1.28;43.65
76660;BME280;65579;45.534;6.212;2023-02-28T04:26:12;98342.20;;;1.15;43.79
76660;BME280;65579;45.534;6.212;2023-02-28T04:28:38;98335.90;;;1.21;43.69
76660;BME280;65579;45.534;6.212;2023-02-28T04:31:04;98338.90;;;0.87;43.62
76660;BME280;65579;45.534;6.212;2023-02-28T04:33:28;98337.37;;;0.94;44.17
76660;BME280;65579;45.534;6.212;2023-02-28T04:35:58;98343.43;;;1.67;43.16
76660;BME280;65579;45.534;6.212;2023-02-28T04:38:18;98346.35;;;1.65;42.06
76660;BME280;65579;45.534;6.212;2023-02-28T04:40:43;98349.57;;;1.64;42.78
76660;BME280;65579;45.534;6.212;2023-02-28T04:43:09;98353.63;;;1.87;42.74
76660;BME280;65579;45.534;6.212;2023-02-28T04:45:35;98357.67;;;1.46;43.06
76660;BME280;65579;45.534;6.212;2023-02-28T04:47:59;98356.81;;;1.17;43.45
76660;BME280;65579;45.534;6.212;2023-02-28T04:50:25;98361.14;;;1.43;43.19
76660;BME280;65579;45.534;6.212;2023-02-28T04:52:50;98360.49;;;1.77;42.19
76660;BME280;65579;45.534;6.212;2023-02-28T04:55:15;98356.07;;;1.69;42.64
76660;BME280;65579;45.534;6.212;2023-02-28T04:57:40;98355.45;;;1.55;41.80
76660;BME280;65579;45.534;6.212;2023-02-28T05:00:07;98350.10;;;1.31;43.11
76660;BME280;65579;45.534;6.212;2023-02-28T05:02:31;98345.76;;;1.74;43.16
76660;BME280;65579;45.534;6.212;2023-02-28T05:04:56;98352.96;;;1.47;42.76
76660;BME280;65579;45.534;6.212;2023-02-28T05:07:22;98353.02;;;1.40;42.71
76660;BME280;65579;45.534;6.212;2023-02-28T05:09:47;98352.52;;;1.64;42.91
76660;BME280;65579;45.534;6.212;2023-02-28T05:12:13;98359.24;;;1.71;41.83
76660;BME280;65579;45.534;6.212;2023-02-28T05:14:38;98360.85;;;1.80;42.03
76660;BME280;65579;45.534;6.212;2023-02-28T05:17:04;98360.68;;;1.44;42.96
76660;BME280;65579;45.534;6.212;2023-02-28T05:19:30;98362.17;;;0.59;45.28
76660;BME280;65579;45.534;6.212;2023-02-28T05:21:55;98361.52;;;1.10;44.50
76660;BME280;65579;45.534;6.212;2023-02-28T05:24:21;98361.86;;;0.86;44.16
76660;BME280;65579;45.534;6.212;2023-02-28T05:26:46;98362.74;;;0.45;44.66
76660;BME280;65579;45.534;6.212;2023-02-28T05:29:12;98367.17;;;1.26;43.64
76660;BME280;65579;45.534;6.212;2023-02-28T05:31:37;98367.43;;;0.84;44.40
76660;BME280;65579;45.534;6.212;2023-02-28T05:34:03;98366.15;;;0.99;43.82
76660;BME280;65579;45.534;6.212;2023-02-28T05:36:28;98370.66;;;0.99;43.64
76660;BME280;65579;45.534;6.212;2023-02-28T05:38:54;98373.25;;;1.16;43.60
76660;BME280;65579;45.534;6.212;2023-02-28T05:41:20;98376.01;;;2.00;41.88
76660;BME280;65579;45.534;6.212;2023-02-28T05:43:44;98377.54;;;1.02;43.36
76660;BME280;65579;45.534;6.212;2023-02-28T05:46:10;98377.88;;;1.01;43.82
76660;BME280;65579;45.534;6.212;2023-02-28T05:48:35;98375.75;;;0.82;43.77
76660;BME280;65579;45.534;6.212;2023-02-28T05:51:00;98372.04;;;0.49;43.98
76660;BME280;65579;45.534;6.212;2023-02-28T05:53:25;98372.03;;;1.52;42.33
76660;BME280;65579;45.534;6.212;2023-02-28T05:55:50;98372.21;;;0.57;44.16
76660;BME280;65579;45.534;6.212;2023-02-28T05:58:16;98372.59;;;0.66;44.27
76660;BME280;65579;45.534;6.212;2023-02-28T06:00:41;98367.63;;;1.09;43.54
76660;BME280;65579;45.534;6.212;2023-02-28T06:03:06;98368.00;;;0.88;45.15
76660;BME280;65579;45.534;6.212;2023-02-28T06:05:31;98368.01;;;-0.23;46.68
76660;BME280;65579;45.534;6.212;2023-02-28T06:07:57;98369.37;;;0.99;44.77
76660;BME280;65579;45.534;6.212;2023-02-28T06:10:22;98374.27;;;0.43;44.67
76660;BME280;65579;45.534;6.212;2023-02-28T06:12:48;98379.16;;;0.78;45.06
76660;BME280;65579;45.534;6.212;2023-02-28T06:15:15;98379.58;;;1.23;43.70
76660;BME280;65579;45.534;6.212;2023-02-28T06:17:39;98380.44;;;0.42;45.13
76660;BME280;65579;45.534;6.212;2023-02-28T06:20:05;98382.80;;;0.84;44.10
76660;BME280;65579;45.534;6.212;2023-02-28T06:22:30;98382.91;;;0.41;44.37
76660;BME280;65579;45.534;6.212;2023-02-28T06:24:55;98384.35;;;0.79;44.00
76660;BME280;65579;45.534;6.212;2023-02-28T06:27:21;98385.51;;;0.43;44.39
76660;BME280;65579;45.534;6.212;2023-02-28T06:29:46;98392.66;;;1.07;43.77
76660;BME280;65579;45.534;6.212;2023-02-28T06:32:12;98392.95;;;0.81;44.07
76660;BME280;65579;45.534;6.212;2023-02-28T06:34:37;98392.34;;;0.16;46.64
76660;BME280;65579;45.534;6.212;2023-02-28T06:37:02;98396.74;;;1.27;43.75
76660;BME280;65579;45.534;6.212;2023-02-28T06:39:28;98403.07;;;0.51;45.26
76660;BME280;65579;45.534;6.212;2023-02-28T06:41:53;98405.05;;;0.61;45.38
76660;BME280;65579;45.534;6.212;2023-02-28T06:44:19;98410.53;;;1.18;44.56
76660;BME280;65579;45.534;6.212;2023-02-28T06:46:49;98413.21;;;1.06;44.58
76660;BME280;65579;45.534;6.212;2023-02-28T06:49:10;98415.98;;;0.58;45.29
76660;BME280;65579;45.534;6.212;2023-02-28T06:51:36;98415.71;;;1.12;44.57
76660;BME280;65579;45.534;6.212;2023-02-28T06:54:00;98414.86;;;1.13;43.95
76660;BME280;65579;45.534;6.212;2023-02-28T06:56:26;98412.19;;;1.42;44.35
76660;BME280;65579;45.534;6.212;2023-02-28T06:58:52;98414.51;;;0.75;45.74
76660;BME280;65579;45.534;6.212;2023-02-28T07:01:18;98415.53;;;0.91;46.02
76660;BME280;65579;45.534;6.212;2023-02-28T07:03:42;98422.74;;;1.25;45.33
76660;BME280;65579;45.534;6.212;2023-02-28T07:06:07;98425.43;;;1.81;44.21
76660;BME280;65579;45.534;6.212;2023-02-28T07:08:33;98427.49;;;1.40;44.05
76660;BME280;65579;45.534;6.212;2023-02-28T07:10:59;98432.89;;;1.59;43.84
76660;BME280;65579;45.534;6.212;2023-02-28T07:13:24;98435.41;;;1.87;43.28
76660;BME280;65579;45.534;6.212;2023-02-28T07:15:55;98437.19;;;1.09;44.56
76660;BME280;65579;45.534;6.212;2023-02-28T07:18:16;98439.79;;;1.48;44.50
76660;BME280;65579;45.534;6.212;2023-02-28T07:20:43;98439.70;;;1.96;43.59
76660;BME280;65579;45.534;6.212;2023-02-28T07:23:09;98440.84;;;1.80;44.56
76660;BME280;65579;45.534;6.212;2023-02-28T07:25:32;98437.21;;;2.05;43.12
76660;BME280;65579;45.534;6.212;2023-02-28T07:27:57;98442.65;;;2.28;44.02
76660;BME280;65579;45.534;6.212;2023-02-28T07:30:23;98445.23;;;2.51;43.33
76660;BME280;65579;45.534;6.212;2023-02-28T07:32:48;98444.83;;;2.30;42.75
76660;BME280;65579;45.534;6.212;2023-02-28T07:35:14;98439.66;;;3.00;41.86
76660;BME280;65579;45.534;6.212;2023-02-28T07:37:39;98447.71;;;2.48;43.04
76660;BME280;65579;45.534;6.212;2023-02-28T07:40:08;98449.57;;;1.80;43.96
76660;BME280;65579;45.534;6.212;2023-02-28T07:42:30;98448.98;;;1.76;45.40
76660;BME280;65579;45.534;6.212;2023-02-28T07:44:56;98450.32;;;1.11;45.73
76660;BME280;65579;45.534;6.212;2023-02-28T07:47:21;98452.36;;;1.49;44.56
76660;BME280;65579;45.534;6.212;2023-02-28T07:49:47;98451.58;;;1.91;43.54
76660;BME280;65579;45.534;6.212;2023-02-28T07:52:12;98450.87;;;2.66;41.91
76660;BME280;65579;45.534;6.212;2023-02-28T07:54:39;98450.48;;;2.54;42.64
76660;BME280;65579;45.534;6.212;2023-02-28T07:57:09;98451.80;;;2.81;41.95
76660;BME280;65579;45.534;6.212;2023-02-28T07:59:29;98448.31;;;3.28;42.00
76660;BME280;65579;45.534;6.212;2023-02-28T08:01:57;98450.44;;;3.31;40.49
76660;BME280;65579;45.534;6.212;2023-02-28T08:04:20;98455.44;;;3.53;40.07
76660;BME280;65579;45.534;6.212;2023-02-28T08:06:46;98453.63;;;3.11;40.21
76660;BME280;65579;45.534;6.212;2023-02-28T08:09:11;98452.37;;;2.95;41.19
76660;BME280;65579;45.534;6.212;2023-02-28T08:11:37;98449.48;;;3.21;40.92
76660;BME280;65579;45.534;6.212;2023-02-28T08:14:02;98454.28;;;3.18;40.39
76660;BME280;65579;45.534;6.212;2023-02-28T08:16:28;98457.66;;;3.60;41.17
76660;BME280;65579;45.534;6.212;2023-02-28T08:18:54;98460.71;;;3.03;41.50
76660;BME280;65579;45.534;6.212;2023-02-28T08:21:20;98459.81;;;3.58;40.68
76660;BME280;65579;45.534;6.212;2023-02-28T08:23:46;98462.57;;;3.38;41.25
76660;BME280;65579;45.534;6.212;2023-02-28T08:26:11;98462.86;;;3.65;40.06
76660;BME280;65579;45.534;6.212;2023-02-28T08:28:36;98463.89;;;3.19;41.32
76660;BME280;65579;45.534;6.212;2023-02-28T08:31:01;98462.15;;;3.11;42.25
76660;BME280;65579;45.534;6.212;2023-02-28T08:33:27;98464.27;;;3.21;41.05
76660;BME280;65579;45.534;6.212;2023-02-28T08:35:53;98466.63;;;3.27;40.39
76660;BME280;65579;45.534;6.212;2023-02-28T08:38:17;98470.00;;;3.15;41.81
76660;BME280;65579;45.534;6.212;2023-02-28T08:40:43;98467.82;;;3.25;43.35
76660;BME280;65579;45.534;6.212;2023-02-28T08:43:08;98464.42;;;3.65;39.31
76660;BME280;65579;45.534;6.212;2023-02-28T08:45:34;98462.74;;;3.81;39.85
76660;BME280;65579;45.534;6.212;2023-02-28T08:47:59;98461.73;;;3.96;38.26
76660;BME280;65579;45.534;6.212;2023-02-28T08:50:25;98463.82;;;3.61;38.73
76660;BME280;65579;45.534;6.212;2023-02-28T08:52:50;98468.01;;;3.70;40.41
76660;BME280;65579;45.534;6.212;2023-02-28T08:55:16;98464.93;;;4.16;39.66
76660;BME280;65579;45.534;6.212;2023-02-28T08:57:41;98467.31;;;3.69;40.12
76660;BME280;65579;45.534;6.212;2023-02-28T09:00:07;98460.33;;;3.78;40.28
76660;BME280;65579;45.534;6.212;2023-02-28T09:02:32;98460.93;;;3.27;40.05
76660;BME280;65579;45.534;6.212;2023-02-28T09:04:57;98459.87;;;3.46;40.16
76660;BME280;65579;45.534;6.212;2023-02-28T09:07:23;98461.14;;;2.86;41.09
76660;BME280;65579;45.534;6.212;2023-02-28T09:09:48;98458.80;;;2.92;41.42
76660;BME280;65579;45.534;6.212;2023-02-28T09:12:14;98459.43;;;3.71;39.53
76660;BME280;65579;45.534;6.212;2023-02-28T09:14:39;98457.78;;;3.16;41.62
76660;BME280;65579;45.534;6.212;2023-02-28T09:17:05;98455.79;;;3.94;39.41
76660;BME280;65579;45.534;6.212;2023-02-28T09:19:30;98454.75;;;3.29;39.79
76660;BME280;65579;45.534;6.212;2023-02-28T09:21:56;98452.72;;;1.67;39.69
76660;BME280;65579;45.534;6.212;2023-02-28T09:24:21;98453.02;;;3.77;38.06
76660;BME280;65579;45.534;6.212;2023-02-28T09:26:46;98454.50;;;2.91;39.40
76660;BME280;65579;45.534;6.212;2023-02-28T09:29:12;98454.52;;;3.90;38.98
76660;BME280;65579;45.534;6.212;2023-02-28T09:31:37;98455.03;;;4.17;38.28
76660;BME280;65579;45.534;6.212;2023-02-28T09:34:04;98454.59;;;3.52;38.95
76660;BME280;65579;45.534;6.212;2023-02-28T09:36:28;98453.98;;;3.97;39.47
76660;BME280;65579;45.534;6.212;2023-02-28T09:38:54;98451.82;;;5.16;38.99
76660;BME280;65579;45.534;6.212;2023-02-28T09:41:21;98449.48;;;5.29;38.34
76660;BME280;65579;45.534;6.212;2023-02-28T09:43:47;98452.08;;;5.09;36.22
76660;BME280;65579;45.534;6.212;2023-02-28T09:46:25;98450.88;;;5.19;37.27
76660;BME280;65579;45.534;6.212;2023-02-28T09:48:39;98458.50;;;3.85;40.78
76660;BME280;65579;45.534;6.212;2023-02-28T09:51:04;98460.65;;;3.58;41.57
76660;BME280;65579;45.534;6.212;2023-02-28T09:53:29;98461.28;;;4.35;42.22
76660;BME280;65579;45.534;6.212;2023-02-28T09:55:55;98460.11;;;3.81;40.42
76660;BME280;65579;45.534;6.212;2023-02-28T09:58:22;98461.08;;;3.33;41.75
76660;BME280;65579;45.534;6.212;2023-02-28T10:00:43;98460.37;;;3.39;43.44
76660;BME280;65579;45.534;6.212;2023-02-28T10:03:25;98461.41;;;4.13;40.46
76660;BME280;65579;45.534;6.212;2023-02-28T10:05:37;98463.13;;;3.79;40.04
76660;BME280;65579;45.534;6.212;2023-02-28T10:08:03;98466.72;;;2.71;42.45
76660;BME280;65579;45.534;6.212;2023-02-28T10:10:27;98467.45;;;3.50;42.15
76660;BME280;65579;45.534;6.212;2023-02-28T10:12:53;98465.14;;;3.55;44.32
76660;BME280;65579;45.534;6.212;2023-02-28T10:15:15;98465.14;;;3.35;42.72
76660;BME280;65579;45.534;6.212;2023-02-28T10:17:42;98469.86;;;3.54;40.45
76660;BME280;65579;45.534;6.212;2023-02-28T10:20:10;98468.22;;;3.23;42.47
76660;BME280;65579;45.534;6.212;2023-02-28T10:22:36;98470.93;;;3.48;43.19
76660;BME280;65579;45.534;6.212;2023-02-28T10:24:58;98467.76;;;3.79;42.49
76660;BME280;65579;45.534;6.212;2023-02-28T10:27:25;98464.15;;;3.79;42.67
76660;BME280;65579;45.534;6.212;2023-02-28T10:29:50;98463.64;;;3.56;42.02
76660;BME280;65579;45.534;6.212;2023-02-28T10:32:15;98465.98;;;3.91;42.47
76660;BME280;65579;45.534;6.212;2023-02-28T10:34:38;98468.76;;;2.88;42.13
76660;BME280;65579;45.534;6.212;2023-02-28T10:37:04;98463.48;;;3.64;43.39
76660;BME280;65579;45.534;6.212;2023-02-28T10:39:37;98468.18;;;3.01;43.40
76660;BME280;65579;45.534;6.212;2023-02-28T10:41:54;98468.40;;;4.75;39.68
76660;BME280;65579;45.534;6.212;2023-02-28T10:44:22;98469.91;;;4.60;38.29
76660;BME280;65579;45.534;6.212;2023-02-28T10:46:45;98469.75;;;3.64;39.39
76660;BME280;65579;45.534;6.212;2023-02-28T10:49:17;98469.99;;;4.92;37.93
76660;BME280;65579;45.534;6.212;2023-02-28T10:51:38;98470.73;;;2.80;42.05
76660;BME280;65579;45.534;6.212;2023-02-28T10:54:01;98467.04;;;3.07;43.85
76660;BME280;65579;45.534;6.212;2023-02-28T10:56:26;98466.40;;;3.81;43.13
76660;BME280;65579;45.534;6.212;2023-02-28T10:58:53;98465.21;;;3.44;41.67
76660;BME280;65579;45.534;6.212;2023-02-28T11:01:20;98471.68;;;2.99;41.33
76660;BME280;65579;45.534;6.212;2023-02-28T11:03:42;98466.38;;;4.56;39.38
76660;BME280;65579;45.534;6.212;2023-02-28T11:06:13;98464.42;;;4.23;40.48
76660;BME280;65579;45.534;6.212;2023-02-28T11:08:33;98459.56;;;5.30;36.73
76660;BME280;65579;45.534;6.212;2023-02-28T11:11:05;98456.32;;;5.48;34.09
76660;BME280;65579;45.534;6.212;2023-02-28T11:13:32;98453.95;;;5.42;34.28
76660;BME280;65579;45.534;6.212;2023-02-28T11:15:53;98452.27;;;5.72;35.49
76660;BME280;65579;45.534;6.212;2023-02-28T11:18:23;98450.42;;;5.69;37.10
76660;BME280;65579;45.534;6.212;2023-02-28T11:20:41;98453.16;;;4.10;39.27
76660;BME280;65579;45.534;6.212;2023-02-28T11:23:12;98456.92;;;4.50;37.95
76660;BME280;65579;45.534;6.212;2023-02-28T11:25:34;98454.63;;;5.51;35.28
76660;BME280;65579;45.534;6.212;2023-02-28T11:27:59;98454.82;;;4.50;40.39
76660;BME280;65579;45.534;6.212;2023-02-28T11:30:28;98446.52;;;5.06;40.15
76660;BME280;65579;45.534;6.212;2023-02-28T11:32:50;98448.01;;;4.85;37.02
76660;BME280;65579;45.534;6.212;2023-02-28T11:35:21;98437.98;;;4.75;39.90
76660;BME280;65579;45.534;6.212;2023-02-28T11:37:41;98438.64;;;4.80;37.64
76660;BME280;65579;45.534;6.212;2023-02-28T11:40:12;98439.83;;;4.91;36.91
76660;BME280;65579;45.534;6.212;2023-02-28T11:42:44;98438.63;;;4.47;36.72
76660;BME280;65579;45.534;6.212;2023-02-28T11:45:08;98435.52;;;4.63;38.36
76660;BME280;65579;45.534;6.212;2023-02-28T11:47:28;98436.46;;;5.00;35.86
76660;BME280;65579;45.534;6.212;2023-02-28T11:49:59;98433.74;;;4.15;38.03
76660;BME280;65579;45.534;6.212;2023-02-28T11:52:21;98435.43;;;4.72;36.79
76660;BME280;65579;45.534;6.212;2023-02-28T11:54:57;98430.83;;;5.14;34.97
76660;BME280;65579;45.534;6.212;2023-02-28T11:57:16;98431.92;;;5.92;33.18
76660;BME280;65579;45.534;6.212;2023-02-28T11:59:40;98427.32;;;6.28;34.12
76660;BME280;65579;45.534;6.212;2023-02-28T12:02:06;98421.34;;;5.75;36.51
76660;BME280;65579;45.534;6.212;2023-02-28T12:04:26;98419.94;;;5.08;35.19
76660;BME280;65579;45.534;6.212;2023-02-28T12:06:52;98418.71;;;4.84;37.54
76660;BME280;65579;45.534;6.212;2023-02-28T12:11:50;98416.01;;;5.39;34.79
76660;BME280;65579;45.534;6.212;2023-02-28T12:14:18;98409.42;;;5.14;35.98
76660;BME280;65579;45.534;6.212;2023-02-28T12:16:36;98409.87;;;5.79;35.74
76660;BME280;65579;45.534;6.212;2023-02-28T12:19:03;98400.97;;;6.53;32.06
76660;BME280;65579;45.534;6.212;2023-02-28T12:21:26;98393.58;;;5.48;35.10
76660;BME280;65579;45.534;6.212;2023-02-28T12:23:56;98393.37;;;6.44;32.62
76660;BME280;65579;45.534;6.212;2023-02-28T12:26:15;98383.36;;;5.13;37.38
76660;BME280;65579;45.534;6.212;2023-02-28T12:28:40;98379.56;;;4.90;37.01
76660;BME280;65579;45.534;6.212;2023-02-28T12:31:05;98380.54;;;5.21;35.51
76660;BME280;65579;45.534;6.212;2023-02-28T12:33:34;98373.62;;;4.68;36.46
76660;BME280;65579;45.534;6.212;2023-02-28T12:35:56;98370.61;;;5.61;36.16
76660;BME280;65579;45.534;6.212;2023-02-28T12:38:20;98371.53;;;6.66;31.55
76660;BME280;65579;45.534;6.212;2023-02-28T12:40:45;98364.43;;;7.22;32.48
76660;BME280;65579;45.534;6.212;2023-02-28T12:43:10;98367.21;;;7.02;32.32
76660;BME280;65579;45.534;6.212;2023-02-28T12:45:41;98369.16;;;6.46;32.56
76660;BME280;65579;45.534;6.212;2023-02-28T12:48:02;98361.84;;;6.78;31.98
76660;BME280;65579;45.534;6.212;2023-02-28T12:50:25;98360.27;;;7.87;30.95
76660;BME280;65579;45.534;6.212;2023-02-28T12:52:55;98361.49;;;6.58;34.08
76660;BME280;65579;45.534;6.212;2023-02-28T12:55:21;98356.59;;;6.94;33.58
76660;BME280;65579;45.534;6.212;2023-02-28T12:57:45;98355.53;;;7.32;30.78
76660;BME280;65579;45.534;6.212;2023-02-28T13:00:13;98355.33;;;7.15;32.77
76660;BME280;65579;45.534;6.212;2023-02-28T13:05:10;98357.15;;;6.25;33.95
76660;BME280;65579;45.534;6.212;2023-02-28T13:07:35;98355.54;;;7.12;32.34
76660;BME280;65579;45.534;6.212;2023-02-28T13:09:52;98353.44;;;7.42;30.73
76660;BME280;65579;45.534;6.212;2023-02-28T13:12:15;98345.52;;;6.85;35.36
76660;BME280;65579;45.534;6.212;2023-02-28T13:14:40;98353.81;;;6.76;34.07
76660;BME280;65579;45.534;6.212;2023-02-28T13:17:11;98344.22;;;6.46;32.87